createdAt,value
2023-02-16T00:00:26.697Z,54.25
2023-02-16T00:03:18.714Z,46.00
2023-02-16T00:05:47.462Z,49.00
2023-02-16T00:08:15.562Z,51.00
2023-02-16T00:11:06.494Z,52.00
2023-02-16T00:13:53.218Z,51.25
2023-02-16T00:16:23.872Z,49.67
2023-02-16T00:18:52.564Z,51.67
2023-02-16T00:21:21.585Z,51.75
2023-02-16T00:23:50.612Z,51.00
2023-02-16T00:26:22.351Z,48.75
2023-02-16T00:28:58.965Z,49.50
2023-02-16T00:31:32.159Z,51.00
2023-02-16T00:34:16.569Z,49.00
2023-02-16T00:36:44.968Z,51.25
2023-02-16T00:39:12.993Z,50.50
2023-02-16T00:41:50.682Z,47.50
2023-02-16T00:44:24.251Z,50.75
2023-02-16T00:46:52.705Z,48.50
2023-02-16T00:49:21.951Z,50.00
2023-02-16T00:51:50.572Z,51.75
2023-02-16T00:54:18.686Z,49.00
2023-02-16T00:56:47.246Z,50.00
2023-02-16T00:59:18.967Z,48.75
2023-02-16T01:01:48.042Z,49.50
2023-02-16T01:04:21.100Z,45.00
2023-02-16T01:07:08.010Z,46.75
2023-02-16T01:09:54.708Z,51.00
2023-02-16T01:12:23.111Z,50.67
2023-02-16T01:14:55.335Z,51.00
2023-02-16T01:17:24.939Z,51.75
2023-02-16T01:19:55.312Z,51.50
2023-02-16T01:22:23.660Z,47.50
2023-02-16T01:24:51.688Z,47.50
2023-02-16T01:27:20.077Z,52.50
2023-02-16T01:29:48.124Z,50.50
2023-02-16T01:32:17.500Z,48.00
2023-02-16T01:34:45.540Z,49.75
2023-02-16T01:37:16.273Z,47.00
2023-02-16T01:39:45.152Z,48.50
2023-02-16T01:42:36.097Z,54.00
2023-02-16T01:45:12.044Z,48.67
2023-02-16T01:47:49.898Z,48.00
2023-02-16T01:50:24.128Z,46.75
2023-02-16T01:53:18.940Z,49.25
2023-02-16T01:55:50.289Z,46.50
2023-02-16T01:58:42.464Z,48.00
2023-02-16T02:01:41.484Z,47.25
2023-02-16T02:04:38.558Z,50.50
2023-02-16T02:07:07.008Z,50.50
2023-02-16T02:09:37.881Z,50.50
2023-02-16T02:12:37.994Z,50.00
2023-02-16T02:15:06.685Z,50.25
2023-02-16T02:17:35.549Z,46.75
2023-02-16T02:20:23.949Z,48.00
2023-02-16T02:23:25.222Z,47.00
2023-02-16T02:26:20.848Z,50.00
2023-02-16T02:29:02.849Z,48.75
2023-02-16T02:32:02.068Z,50.33
2023-02-16T02:34:48.352Z,48.33
2023-02-16T02:37:49.458Z,52.75
2023-02-16T02:40:27.259Z,49.75
2023-02-16T02:43:04.722Z,50.75
2023-02-16T02:45:43.942Z,45.50
2023-02-16T02:48:12.614Z,46.00
2023-02-16T02:51:12.997Z,51.00
2023-02-16T02:53:47.438Z,48.50
2023-02-16T02:56:35.581Z,47.25
2023-02-16T02:59:26.360Z,49.00
2023-02-16T03:01:59.066Z,45.00
2023-02-16T03:04:29.232Z,44.25
2023-02-16T03:06:59.262Z,42.00
2023-02-16T03:09:27.946Z,45.25
2023-02-16T03:12:16.163Z,45.25
2023-02-16T03:14:48.881Z,45.50
2023-02-16T03:17:37.206Z,47.75
2023-02-16T03:20:27.069Z,45.33
2023-02-16T03:23:14.857Z,42.75
2023-02-16T03:26:02.219Z,44.00
2023-02-16T03:28:50.671Z,46.33
2023-02-16T03:31:22.550Z,46.00
2023-02-16T03:33:55.069Z,43.67
2023-02-16T03:36:30.225Z,44.75
2023-02-16T03:38:58.794Z,47.00
2023-02-16T03:41:27.590Z,42.25
2023-02-16T03:43:55.500Z,45.00
2023-02-16T03:46:23.919Z,45.50
2023-02-16T03:48:51.910Z,46.50
2023-02-16T03:51:20.215Z,45.25
2023-02-16T03:53:48.221Z,46.00
2023-02-16T03:56:17.260Z,46.00
2023-02-16T03:58:45.256Z,47.75
2023-02-16T04:01:13.662Z,47.00
2023-02-16T04:03:41.839Z,49.67
2023-02-16T04:06:10.266Z,48.50
2023-02-16T04:08:38.438Z,42.33
2023-02-16T04:11:26.850Z,47.25
2023-02-16T04:13:54.978Z,42.75
2023-02-16T04:16:23.412Z,47.25
2023-02-16T04:18:51.606Z,48.00
2023-02-16T04:21:20.150Z,41.67
2023-02-16T04:23:48.293Z,45.25
2023-02-16T04:26:16.672Z,43.50
2023-02-16T04:28:44.688Z,45.00
2023-02-16T04:31:13.151Z,47.00
2023-02-16T04:33:41.289Z,44.25
2023-02-16T04:36:10.105Z,42.75
2023-02-16T04:38:38.086Z,42.00
2023-02-16T04:41:06.453Z,44.00
2023-02-16T04:43:34.656Z,42.00
2023-02-16T04:46:03.145Z,44.33
2023-02-16T04:48:31.217Z,46.00
2023-02-16T04:50:59.577Z,43.00
2023-02-16T04:53:27.725Z,44.00
2023-02-16T04:55:56.444Z,43.50
2023-02-16T04:58:24.515Z,46.00
2023-02-16T05:00:52.910Z,45.50
2023-02-16T05:03:20.965Z,45.33
2023-02-16T05:05:49.545Z,44.00
2023-02-16T05:08:20.547Z,47.67
2023-02-16T05:11:09.413Z,41.25
2023-02-16T05:13:56.309Z,42.00
2023-02-16T05:16:25.089Z,46.33
2023-02-16T05:18:53.224Z,43.75
2023-02-16T05:21:33.665Z,42.00
2023-02-16T05:24:05.306Z,43.00
2023-02-16T05:26:35.359Z,46.00
2023-02-16T05:29:04.363Z,44.75
2023-02-16T05:31:32.890Z,46.75
2023-02-16T05:34:00.915Z,47.25
2023-02-16T05:36:29.457Z,43.50
2023-02-16T05:38:57.452Z,44.75
2023-02-16T05:41:25.855Z,42.50
2023-02-16T05:43:58.661Z,44.25
2023-02-16T05:46:29.740Z,45.75
2023-02-16T05:48:57.842Z,46.25
2023-02-16T05:51:27.069Z,46.00
2023-02-16T05:53:55.298Z,47.00
2023-02-16T05:56:26.816Z,45.00
2023-02-16T05:58:55.002Z,48.00
2023-02-16T06:01:23.470Z,47.00
2023-02-16T06:03:51.585Z,41.67
2023-02-16T06:06:20.325Z,45.75
2023-02-16T06:08:48.392Z,45.75
2023-02-16T06:11:35.432Z,45.50
2023-02-16T06:14:12.373Z,43.75
2023-02-16T06:16:44.755Z,40.67
2023-02-16T06:19:13.397Z,45.00
2023-02-16T06:21:42.146Z,41.25
2023-02-16T06:24:11.749Z,47.25
2023-02-16T06:26:40.152Z,46.00
2023-02-16T06:29:08.178Z,45.50
2023-02-16T06:31:37.253Z,43.50
2023-02-16T06:34:05.922Z,43.67
2023-02-16T06:36:34.706Z,43.00
2023-02-16T06:39:03.182Z,45.50
2023-02-16T06:41:31.960Z,45.25
2023-02-16T06:44:06.301Z,40.50
2023-02-16T06:46:34.747Z,45.75
2023-02-16T06:49:03.206Z,45.00
2023-02-16T06:51:31.888Z,43.00
2023-02-16T06:54:00.140Z,42.67
2023-02-16T06:56:28.411Z,45.00
2023-02-16T06:58:56.437Z,48.00
2023-02-16T07:01:26.227Z,44.00
2023-02-16T07:03:55.817Z,43.00
2023-02-16T07:06:25.978Z,44.25
2023-02-16T07:08:54.526Z,43.00
2023-02-16T07:11:23.095Z,45.25
2023-02-16T07:13:51.474Z,45.75
2023-02-16T07:16:19.995Z,47.00
2023-02-16T07:18:48.358Z,44.25
2023-02-16T07:21:17.192Z,46.00
2023-02-16T07:23:45.576Z,45.00
2023-02-16T07:26:13.960Z,46.75
2023-02-16T07:28:42.039Z,44.75
2023-02-16T07:31:12.952Z,46.00
2023-02-16T07:33:41.362Z,46.00
2023-02-16T07:36:11.420Z,44.75
2023-02-16T07:38:42.111Z,46.25
2023-02-16T07:41:11.451Z,46.50
2023-02-16T07:43:40.913Z,42.50
2023-02-16T07:46:09.772Z,43.50
2023-02-16T07:48:37.913Z,43.00
2023-02-16T07:51:07.263Z,44.67
2023-02-16T07:53:35.639Z,45.00
2023-02-16T07:56:04.225Z,43.00
2023-02-16T07:58:32.324Z,43.50
2023-02-16T08:01:13.046Z,43.67
2023-02-16T08:03:44.414Z,43.25
2023-02-16T08:06:13.352Z,42.67
2023-02-16T08:08:41.692Z,42.50
2023-02-16T08:11:11.025Z,42.25
2023-02-16T08:13:39.314Z,41.75
2023-02-16T08:16:12.203Z,43.75
2023-02-16T08:18:42.072Z,41.50
2023-02-16T08:21:15.859Z,39.75
2023-02-16T08:23:49.610Z,40.75
2023-02-16T08:26:19.264Z,40.50
2023-02-16T08:28:50.249Z,41.75
2023-02-16T08:31:21.115Z,40.00
2023-02-16T08:33:49.708Z,37.00
2023-02-16T08:36:29.542Z,36.75
2023-02-16T08:38:57.635Z,38.00
2023-02-16T08:41:46.619Z,35.00
2023-02-16T08:44:17.054Z,40.50
2023-02-16T08:46:47.729Z,38.00
2023-02-16T08:49:18.736Z,34.25
2023-02-16T08:51:49.730Z,38.00
2023-02-16T08:54:23.009Z,39.50
2023-02-16T08:56:51.463Z,35.75
2023-02-16T08:59:21.817Z,40.50
2023-02-16T09:01:50.513Z,38.00
2023-02-16T09:04:22.903Z,37.00
2023-02-16T09:06:52.611Z,41.00
2023-02-16T09:09:20.933Z,40.50
2023-02-16T09:11:49.494Z,39.25
2023-02-16T09:14:23.250Z,40.75
2023-02-16T09:16:51.765Z,43.75
2023-02-16T09:19:21.202Z,43.25
2023-02-16T09:21:51.263Z,44.00
2023-02-16T09:24:19.583Z,45.75
2023-02-16T09:26:48.240Z,48.33
2023-02-16T09:29:16.343Z,47.50
2023-02-16T09:31:45.724Z,48.50
2023-02-16T09:34:16.291Z,49.00
2023-02-16T09:36:45.642Z,51.67
2023-02-16T09:39:14.377Z,50.25
2023-02-16T09:42:01.146Z,50.50
2023-02-16T09:44:59.154Z,56.33
2023-02-16T09:47:33.593Z,54.00
2023-02-16T09:50:13.841Z,51.50
2023-02-16T09:52:52.538Z,57.25
2023-02-16T09:55:22.733Z,55.50
2023-02-16T09:58:19.834Z,57.00
2023-02-16T10:00:52.501Z,59.00
2023-02-16T10:04:01.012Z,62.25
2023-02-16T10:06:40.505Z,58.00
2023-02-16T10:09:16.570Z,63.25
2023-02-16T10:11:51.753Z,61.00
2023-02-16T10:14:34.001Z,61.75
2023-02-16T10:17:04.487Z,66.67
2023-02-16T10:19:40.152Z,61.00
2023-02-16T10:22:17.367Z,62.67
2023-02-16T10:25:06.464Z,58.25
2023-02-16T10:27:42.454Z,60.00
2023-02-16T10:30:22.568Z,61.75
2023-02-16T10:33:16.973Z,61.00
2023-02-16T10:35:51.656Z,58.50
2023-02-16T10:38:36.000Z,63.75
2023-02-16T10:41:17.500Z,62.50
2023-02-16T10:43:53.260Z,60.25
2023-02-16T10:46:31.758Z,63.25
2023-02-16T10:49:02.573Z,63.00
2023-02-16T10:51:37.921Z,65.00
2023-02-16T10:54:10.849Z,60.67
2023-02-16T10:56:50.338Z,60.00
2023-02-16T10:59:50.911Z,59.50
2023-02-16T11:02:33.601Z,61.00
2023-02-16T11:05:02.168Z,64.25
2023-02-16T11:07:31.683Z,63.67
2023-02-16T11:10:01.771Z,64.50
2023-02-16T11:12:41.245Z,58.50
2023-02-16T11:15:16.974Z,53.75
2023-02-16T11:17:55.263Z,62.50
2023-02-16T11:20:30.182Z,63.75
2023-02-16T11:23:17.532Z,59.00
2023-02-16T11:26:03.836Z,60.33
2023-02-16T11:28:41.224Z,62.50
2023-02-16T11:31:28.721Z,66.00
2023-02-16T11:34:24.087Z,66.25
2023-02-16T11:36:53.243Z,66.67
2023-02-16T11:39:24.381Z,64.50
2023-02-16T11:41:58.450Z,62.50
2023-02-16T11:44:32.471Z,65.50
2023-02-16T11:47:10.083Z,74.00
2023-02-16T11:49:41.886Z,66.00
2023-02-16T11:52:24.102Z,64.50
2023-02-16T11:54:56.002Z,69.00
2023-02-16T11:57:35.990Z,77.33
2023-02-16T12:00:19.204Z,71.75
2023-02-16T12:02:48.414Z,74.25
2023-02-16T12:05:32.442Z,70.75
2023-02-16T12:08:09.348Z,76.00
2023-02-16T12:10:50.984Z,78.50
2023-02-16T12:13:32.904Z,76.50
2023-02-16T12:16:37.349Z,78.50
2023-02-16T12:19:40.741Z,78.00
2023-02-16T12:22:14.948Z,78.00
2023-02-16T12:25:01.101Z,75.25
2023-02-16T12:27:48.104Z,76.25
2023-02-16T12:31:05.564Z,78.00
2023-02-16T12:33:40.890Z,85.67
2023-02-16T12:36:17.619Z,88.67
2023-02-16T12:39:05.889Z,86.00
2023-02-16T12:42:24.069Z,82.50
2023-02-16T12:44:56.507Z,86.50
2023-02-16T12:47:49.214Z,88.50
2023-02-16T12:50:23.945Z,91.25
2023-02-16T12:53:05.122Z,92.50
2023-02-16T12:55:39.590Z,92.00
2023-02-16T12:58:15.159Z,88.75
2023-02-16T13:00:46.734Z,90.00
2023-02-16T13:03:27.593Z,91.50
2023-02-16T13:06:31.406Z,96.00
2023-02-16T13:09:50.276Z,84.00
2023-02-16T13:12:34.289Z,83.25
2023-02-16T13:15:08.077Z,85.25
2023-02-16T13:17:43.789Z,81.00
2023-02-16T13:20:19.977Z,87.50
2023-02-16T13:23:29.016Z,78.33
2023-02-16T13:26:11.402Z,78.25
2023-02-16T13:28:55.067Z,80.75
2023-02-16T13:31:54.598Z,82.00
2023-02-16T13:35:00.337Z,79.75
2023-02-16T13:37:43.281Z,78.75
2023-02-16T13:40:41.242Z,78.00
2023-02-16T13:43:15.260Z,74.00
2023-02-16T13:45:46.965Z,76.25
2023-02-16T13:48:22.214Z,77.25
2023-02-16T13:50:59.755Z,73.00
2023-02-16T13:53:40.493Z,76.00
2023-02-16T13:56:39.632Z,73.75
2023-02-16T13:59:17.208Z,75.00
2023-02-16T14:01:57.004Z,77.25
2023-02-16T14:04:25.002Z,78.67
2023-02-16T14:07:02.251Z,71.75
2023-02-16T14:09:39.196Z,80.75
2023-02-16T14:12:32.021Z,78.00
2023-02-16T14:15:05.471Z,76.00
2023-02-16T14:17:35.326Z,78.50
2023-02-16T14:20:09.191Z,72.75
2023-02-16T14:22:43.235Z,75.25
2023-02-16T14:25:20.695Z,71.00
2023-02-16T14:28:05.520Z,77.50
2023-02-16T14:30:46.492Z,75.67
2023-02-16T14:33:17.674Z,70.75
2023-02-16T14:36:00.812Z,76.33
2023-02-16T14:38:44.845Z,72.50
2023-02-16T14:41:31.667Z,73.25
2023-02-16T14:44:06.182Z,76.00
2023-02-16T14:46:34.373Z,77.25
2023-02-16T14:49:11.507Z,74.00
2023-02-16T14:51:57.387Z,73.67
2023-02-16T14:54:46.864Z,74.00
2023-02-16T14:57:48.726Z,74.50
2023-02-16T15:00:26.569Z,72.00
2023-02-16T15:03:14.209Z,72.50
2023-02-16T15:05:42.976Z,73.75
2023-02-16T15:08:35.067Z,70.25
2023-02-16T15:11:17.165Z,68.00
2023-02-16T15:13:45.356Z,74.00
2023-02-16T15:16:16.911Z,72.75
2023-02-16T15:18:54.236Z,73.00
2023-02-16T15:21:28.710Z,74.00
2023-02-16T15:24:00.105Z,77.33
2023-02-16T15:26:34.586Z,78.67
2023-02-16T15:29:27.245Z,78.75
2023-02-16T15:31:57.016Z,80.00
2023-02-16T15:34:35.502Z,83.00
2023-02-16T15:37:22.907Z,85.00
2023-02-16T15:40:08.614Z,88.00
2023-02-16T15:42:44.267Z,87.75
2023-02-16T15:45:38.537Z,83.25
2023-02-16T15:48:34.176Z,83.75
2023-02-16T15:51:11.485Z,82.33
2023-02-16T15:53:50.567Z,83.00
2023-02-16T15:56:46.248Z,85.50
2023-02-16T15:59:39.552Z,85.00
2023-02-16T16:02:21.028Z,86.33
2023-02-16T16:04:55.168Z,83.50
2023-02-16T16:07:40.060Z,85.50
2023-02-16T16:10:17.283Z,84.00
2023-02-16T16:12:46.720Z,87.75
2023-02-16T16:15:19.279Z,87.75
2023-02-16T16:17:47.393Z,85.75
2023-02-16T16:20:27.891Z,84.00
2023-02-16T16:23:21.463Z,85.33
2023-02-16T16:25:49.902Z,84.33
2023-02-16T16:28:27.300Z,84.75
2023-02-16T16:31:17.612Z,87.75
2023-02-16T16:34:32.213Z,83.50
2023-02-16T16:37:03.953Z,80.00
2023-02-16T16:39:38.657Z,85.33
2023-02-16T16:42:22.590Z,84.00
2023-02-16T16:44:54.521Z,80.25
2023-02-16T16:47:24.946Z,80.00
2023-02-16T16:50:02.490Z,79.00
2023-02-16T16:52:36.447Z,86.33
2023-02-16T16:55:28.666Z,82.25
2023-02-16T16:58:10.478Z,84.00
2023-02-16T17:00:39.925Z,83.75
2023-02-16T17:03:09.655Z,84.25
2023-02-16T17:05:40.325Z,79.75
2023-02-16T17:08:09.142Z,84.25
2023-02-16T17:10:40.324Z,84.00
2023-02-16T17:13:15.931Z,81.25
2023-02-16T17:15:54.424Z,86.00
2023-02-16T17:18:22.874Z,80.75
2023-02-16T17:20:51.306Z,84.67
2023-02-16T17:23:21.862Z,86.00
2023-02-16T17:25:50.381Z,80.50
2023-02-16T17:28:19.815Z,79.75
2023-02-16T17:30:48.108Z,84.75
2023-02-16T17:33:16.473Z,83.00
2023-02-16T17:35:44.579Z,83.75
2023-02-16T17:38:19.206Z,87.25
2023-02-16T17:40:52.552Z,86.67
2023-02-16T17:43:21.965Z,88.50
2023-02-16T17:45:50.558Z,95.50
2023-02-16T17:48:26.967Z,87.25
2023-02-16T17:50:57.607Z,86.75
2023-02-16T17:53:27.305Z,98.25
2023-02-16T17:55:56.709Z,93.75
2023-02-16T17:58:25.760Z,93.75
2023-02-16T18:00:53.913Z,93.50
2023-02-16T18:03:23.362Z,90.00
2023-02-16T18:05:51.602Z,95.00
2023-02-16T18:08:19.952Z,98.00
2023-02-16T18:10:50.917Z,93.00
2023-02-16T18:13:19.773Z,91.00
2023-02-16T18:15:49.727Z,91.50
2023-02-16T18:18:19.036Z,91.50
2023-02-16T18:20:47.697Z,98.00
2023-02-16T18:23:16.189Z,89.75
2023-02-16T18:25:44.314Z,98.50
2023-02-16T18:28:21.048Z,99.50
2023-02-16T18:30:50.841Z,95.75
2023-02-16T18:33:21.464Z,100.00
2023-02-16T18:35:52.645Z,96.00
2023-02-16T18:38:22.279Z,92.00
2023-02-16T18:40:51.874Z,92.50
2023-02-16T18:43:21.452Z,94.00
2023-02-16T18:45:50.147Z,97.33
2023-02-16T18:48:19.016Z,86.67
2023-02-16T18:50:47.047Z,91.67
2023-02-16T18:53:15.683Z,102.25
2023-02-16T18:55:43.761Z,95.50
2023-02-16T18:58:14.432Z,97.00
2023-02-16T19:00:42.501Z,98.75
2023-02-16T19:03:10.977Z,100.00
2023-02-16T19:05:39.211Z,100.00
2023-02-16T19:08:07.867Z,100.33
2023-02-16T19:10:35.897Z,104.00
2023-02-16T19:13:05.626Z,101.50
2023-02-16T19:15:35.178Z,106.50
2023-02-16T19:18:03.717Z,97.00
2023-02-16T19:20:31.744Z,101.50
2023-02-16T19:23:00.163Z,100.00
2023-02-16T19:25:29.708Z,100.50
2023-02-16T19:27:58.005Z,96.00
2023-02-16T19:30:26.056Z,103.25
2023-02-16T19:32:55.913Z,103.50
2023-02-16T19:35:24.027Z,97.00
2023-02-16T19:37:52.477Z,106.00
2023-02-16T19:40:20.604Z,105.25
2023-02-16T19:42:49.338Z,102.50
2023-02-16T19:45:17.398Z,107.25
2023-02-16T19:47:45.750Z,103.33
2023-02-16T19:50:13.812Z,103.25
2023-02-16T19:52:42.196Z,111.75
2023-02-16T19:55:11.592Z,105.25
2023-02-16T19:57:40.126Z,102.00
2023-02-16T20:00:11.761Z,110.50
2023-02-16T20:02:42.868Z,108.75
2023-02-16T20:05:12.004Z,102.00
2023-02-16T20:07:40.647Z,109.00
2023-02-16T20:10:09.149Z,105.25
2023-02-16T20:12:37.863Z,108.25
2023-02-16T20:15:06.433Z,117.00
2023-02-16T20:17:34.830Z,108.50
2023-02-16T20:20:02.927Z,115.33
2023-02-16T20:22:31.405Z,106.67
2023-02-16T20:24:59.915Z,113.00
2023-02-16T20:27:29.264Z,108.50
2023-02-16T20:29:57.951Z,110.50
2023-02-16T20:32:27.366Z,112.50
2023-02-16T20:34:55.464Z,104.75
2023-02-16T20:37:24.023Z,111.25
2023-02-16T20:39:52.265Z,104.00
2023-02-16T20:42:20.831Z,113.00
2023-02-16T20:44:49.602Z,107.00
2023-02-16T20:47:19.268Z,111.25
2023-02-16T20:49:48.140Z,108.75
2023-02-16T20:52:17.228Z,103.50
2023-02-16T20:54:45.984Z,109.50
2023-02-16T20:57:26.061Z,107.25
2023-02-16T20:59:55.977Z,113.50
2023-02-16T21:02:24.742Z,106.75
2023-02-16T21:04:53.244Z,112.33
2023-02-16T21:07:21.952Z,109.50
2023-02-16T21:09:50.308Z,109.75
2023-02-16T21:12:18.893Z,110.25
2023-02-16T21:14:47.342Z,104.25
2023-02-16T21:17:17.564Z,108.00
2023-02-16T21:19:46.160Z,114.50
2023-02-16T21:22:14.992Z,111.50
2023-02-16T21:24:43.969Z,110.00
2023-02-16T21:27:12.718Z,107.33
2023-02-16T21:29:41.354Z,109.67
2023-02-16T21:32:10.456Z,105.67
2023-02-16T21:34:38.823Z,110.00
2023-02-16T21:37:07.474Z,114.75
2023-02-16T21:39:54.144Z,111.00
2023-02-16T21:42:22.843Z,110.25
2023-02-16T21:45:11.137Z,109.00
2023-02-16T21:48:03.809Z,117.75
2023-02-16T21:50:37.649Z,111.75
2023-02-16T21:53:07.950Z,114.50
2023-02-16T21:55:58.284Z,117.67
2023-02-16T21:58:27.392Z,117.50
2023-02-16T22:00:56.957Z,116.33
2023-02-16T22:03:26.286Z,112.00
2023-02-16T22:05:54.582Z,112.00
2023-02-16T22:08:23.284Z,109.00
2023-02-16T22:10:51.628Z,113.33
2023-02-16T22:13:20.540Z,108.75
2023-02-16T22:15:49.248Z,116.25
2023-02-16T22:18:17.811Z,114.50
2023-02-16T22:20:48.801Z,109.00
2023-02-16T22:23:17.439Z,112.00
2023-02-16T22:25:45.659Z,110.00
2023-02-16T22:28:14.351Z,112.33
2023-02-16T22:30:45.119Z,112.00
2023-02-16T22:33:14.001Z,109.67
2023-02-16T22:35:42.233Z,116.50
2023-02-16T22:38:11.162Z,111.00
2023-02-16T22:40:39.535Z,115.50
2023-02-16T22:43:08.645Z,113.67
2023-02-16T22:45:37.936Z,118.67
2023-02-16T22:48:06.664Z,116.25
2023-02-16T22:50:36.145Z,115.25
2023-02-16T22:53:04.764Z,112.00
2023-02-16T22:55:32.977Z,113.25
2023-02-16T22:58:01.538Z,121.67
2023-02-16T23:00:29.822Z,120.00
2023-02-16T23:02:58.608Z,121.00
2023-02-16T23:05:26.957Z,116.33
2023-02-16T23:07:55.478Z,116.00
2023-02-16T23:10:23.717Z,118.00
2023-02-16T23:12:52.309Z,120.00
2023-02-16T23:15:20.613Z,113.00
2023-02-16T23:17:49.098Z,118.50
2023-02-16T23:20:17.431Z,118.25
2023-02-16T23:22:45.956Z,120.00
2023-02-16T23:25:32.884Z,120.25
2023-02-16T23:28:03.736Z,117.33
2023-02-16T23:30:32.114Z,124.50
2023-02-16T23:33:00.690Z,120.00
2023-02-16T23:35:28.964Z,119.25
2023-02-16T23:37:57.542Z,126.25
2023-02-16T23:40:25.693Z,119.25
2023-02-16T23:42:54.274Z,116.00
2023-02-16T23:45:22.583Z,120.75
2023-02-16T23:47:51.082Z,127.50
2023-02-16T23:50:19.628Z,123.00
2023-02-16T23:52:48.236Z,123.25
2023-02-16T23:55:16.521Z,120.33
2023-02-16T23:57:45.507Z,122.00
